Terminal Aerodrome Forecast
Issued by NWS

Home | Current Version | Previous Version | Graphics & Text | Print | Product List | Glossary On
Versions: 1 2 3 4 5 6 7 8 9 10 11 12 13 14 15 16
000
FTUS43 KBIS 231729
TAFJMS
TAF
KJMS 231729Z 2318/2418 14011KT P6SM FEW110
     FM231900 14014KT P6SM VCTS FEW035CB SCT200
      TEMPO 2320/2323 6SM -TSRA BKN030CB
     FM240500 16009KT P6SM VCTS SCT050CB BKN200
     FM240800 16009KT P6SM SCT050 BKN200
     FM241500 19011KT P6SM FEW060 SCT200=

USA.gov is the U.S. government's official web portal to all federal, state and local government web resources and services.